Time;durP1;ratioP1;P1;durP2;ratioP2;P2;SDS_P1;SDS_P2;PMS_P1;PMS_P2;Temp;Humidity;BMP_temperature;BMP_pressure;BME280_temperature;BME280_humidity;BME280_pressure;Samples;Min_cycle;Max_cycle;Signal;HPM_P1;HPM_P2
2023/04/20 00:01:04;;;;;;;13.60;3.90;;;;;;;12.32;48.23;100286.90;108282;1257;58211;-46
2023/04/20 00:03:34;;;;;;;20.20;4.50;;;;;;;12.28;48.40;100288.81;108289;1257;64984;-46
2023/04/20 00:06:03;;;;;;;13.20;4.30;;;;;;;12.27;48.36;100290.27;108274;1257;71231;-46
2023/04/20 00:08:31;;;;;;;22.30;5.70;;;;;;;12.28;48.17;100288.30;108221;1260;65132;-47
2023/04/20 00:10:59;;;;;;;24.50;4.90;;;;;;;12.27;48.24;100286.59;108267;1257;62150;-46
2023/04/20 00:13:27;;;;;;;22.20;4.90;;;;;;;12.29;48.35;100285.38;108277;1257;58749;-46
2023/04/20 00:15:55;;;;;;;22.60;5.00;;;;;;;12.30;48.23;100282.63;108266;1257;64399;-46
2023/04/20 00:18:23;;;;;;;21.10;4.70;;;;;;;12.30;48.18;100279.78;108319;1257;61429;-46
2023/04/20 00:20:52;;;;;;;33.00;5.60;;;;;;;12.30;48.09;100275.09;108333;1257;65377;-47
2023/04/20 00:23:20;;;;;;;20.00;4.30;;;;;;;12.29;47.88;100271.87;108219;1260;58272;-46
2023/04/20 00:25:48;;;;;;;23.70;4.20;;;;;;;12.28;48.05;100272.29;108264;1257;58849;-47
2023/04/20 00:28:16;;;;;;;19.40;4.50;;;;;;;12.28;48.15;100272.26;108248;1260;65055;-47
2023/04/20 00:30:44;;;;;;;14.90;4.10;;;;;;;12.27;47.95;100267.56;108219;1257;65552;-46
2023/04/20 00:33:13;;;;;;;18.00;4.40;;;;;;;12.26;47.93;100266.27;108366;1257;64147;-46
2023/04/20 00:35:42;;;;;;;21.80;4.60;;;;;;;12.25;47.78;100262.83;108210;1257;59177;-46
2023/04/20 00:38:10;;;;;;;21.10;4.90;;;;;;;12.25;47.94;100263.05;108263;1257;61461;-47
2023/04/20 00:40:38;;;;;;;21.10;4.80;;;;;;;12.34;47.89;100264.80;108237;1257;65373;-46
2023/04/20 00:43:10;;;;;;;23.10;4.40;;;;;;;12.29;48.09;100264.23;108154;1257;61515;-47
2023/04/20 00:45:38;;;;;;;23.00;5.00;;;;;;;12.27;47.96;100261.09;108242;1257;72655;-47
2023/04/20 00:48:06;;;;;;;13.80;4.50;;;;;;;12.27;48.17;100261.13;108253;1260;59302;-46
2023/04/20 00:50:34;;;;;;;28.30;4.70;;;;;;;12.26;48.13;100255.54;108280;1257;58673;-46
2023/04/20 00:53:03;;;;;;;19.10;5.10;;;;;;;12.26;48.32;100255.93;108032;1264;67004;-46
2023/04/20 00:55:31;;;;;;;20.50;5.20;;;;;;;12.26;48.38;100252.55;108254;1261;72141;-46
2023/04/20 00:57:59;;;;;;;16.40;4.30;;;;;;;12.25;48.07;100246.48;108273;1261;64012;-46
2023/04/20 01:00:27;;;;;;;18.20;4.10;;;;;;;12.25;48.01;100244.75;108203;1257;58618;-47
2023/04/20 01:02:56;;;;;;;16.70;4.40;;;;;;;12.24;48.21;100242.52;108269;1256;59253;-47
2023/04/20 01:05:24;;;;;;;16.80;5.00;;;;;;;12.24;48.33;100237.41;108196;1257;66499;-46
2023/04/20 01:07:52;;;;;;;16.20;4.10;;;;;;;12.23;48.24;100236.23;108205;1261;62332;-46
2023/04/20 01:10:21;;;;;;;17.10;5.20;;;;;;;12.22;48.35;100239.34;104960;1257;64978;-46
2023/04/20 01:12:49;;;;;;;24.30;5.30;;;;;;;12.21;48.38;100238.42;108280;1261;58125;-46
2023/04/20 01:15:17;;;;;;;16.90;4.50;;;;;;;12.20;48.22;100237.12;108279;1257;59458;-46
2023/04/20 01:17:46;;;;;;;16.00;4.70;;;;;;;12.20;48.42;100237.29;108193;1257;65382;-47
2023/04/20 01:20:15;;;;;;;16.70;4.00;;;;;;;12.19;48.59;100238.27;108261;1260;64162;-47
2023/04/20 01:22:47;;;;;;;16.70;4.40;;;;;;;12.18;48.76;100239.40;108301;1257;65012;-46
2023/04/20 01:25:15;;;;;;;12.70;4.00;;;;;;;12.17;48.79;100235.93;108306;1257;59181;-46
2023/04/20 01:27:44;;;;;;;16.20;4.20;;;;;;;12.17;49.10;100236.30;108297;1258;59970;-46
2023/04/20 01:30:12;;;;;;;20.80;4.90;;;;;;;12.17;49.23;100236.64;108272;1257;65930;-46
2023/04/20 01:32:40;;;;;;;18.10;4.40;;;;;;;12.16;49.38;100235.86;108314;1260;62462;-46
2023/04/20 01:35:09;;;;;;;16.20;4.50;;;;;;;12.17;49.34;100233.53;108375;1262;65016;-46
2023/04/20 01:37:38;;;;;;;20.60;4.80;;;;;;;12.17;49.33;100233.15;108361;1257;58628;-46
2023/04/20 01:40:11;;;;;;;15.60;4.10;;;;;;;12.16;49.16;100232.56;108243;1261;59468;-46
2023/04/20 01:42:39;;;;;;;16.80;4.70;;;;;;;12.14;49.42;100229.73;108265;1257;68060;-46
2023/04/20 01:45:08;;;;;;;26.90;4.30;;;;;;;12.14;49.44;100229.86;108285;1262;63781;-48
2023/04/20 01:47:36;;;;;;;24.10;4.90;;;;;;;12.13;49.54;100230.15;108220;1262;64882;-47
2023/04/20 01:50:07;;;;;;;21.90;4.50;;;;;;;12.12;49.55;100225.52;108200;1257;58609;-46
2023/04/20 01:52:35;;;;;;;16.70;3.90;;;;;;;12.13;49.58;100225.27;108238;1257;60161;-45
2023/04/20 01:55:04;;;;;;;18.40;4.50;;;;;;;12.12;49.52;100219.84;106345;1257;74692;-46
2023/04/20 01:57:33;;;;;;;16.00;3.70;;;;;;;12.13;49.51;100221.54;108522;1254;61406;-47
2023/04/20 02:00:03;;;;;;;19.20;4.60;;;;;;;12.13;49.58;100220.69;108356;1257;64630;-46
2023/04/20 02:02:41;;;;;;;17.50;4.30;;;;;;;12.12;49.65;100220.73;104936;1254;60537;-51
2023/04/20 02:05:09;;;;;;;21.10;4.60;;;;;;;12.13;49.40;100215.27;104962;1254;60920;-46
2023/04/20 02:07:38;;;;;;;18.90;4.00;;;;;;;12.12;49.60;100208.83;104971;1259;65839;-46
2023/04/20 02:10:07;;;;;;;20.50;4.70;;;;;;;12.10;49.67;100207.38;105014;1258;63829;-46
2023/04/20 02:12:35;;;;;;;23.60;4.70;;;;;;;12.08;49.91;100210.52;108309;1254;64962;-46
2023/04/20 02:15:05;;;;;;;18.90;4.40;;;;;;;12.08;50.04;100207.20;108376;1259;58344;-47
2023/04/20 02:17:35;;;;;;;20.70;4.70;;;;;;;12.08;49.98;100206.31;108494;1254;59166;-47
2023/04/20 02:20:10;;;;;;;15.30;4.60;;;;;;;12.08;49.85;100204.20;105125;1254;67911;-45
2023/04/20 02:22:38;;;;;;;18.50;4.60;;;;;;;12.06;49.83;100203.09;105069;1260;61563;-46
2023/04/20 02:25:09;;;;;;;16.00;4.00;;;;;;;12.06;49.90;100202.63;108336;1259;75470;-46
2023/04/20 02:27:38;;;;;;;16.40;4.20;;;;;;;12.06;50.08;100199.79;108416;1258;59687;-47
2023/04/20 02:30:07;;;;;;;23.30;4.40;;;;;;;12.07;50.02;100202.17;108449;1258;60433;-47
2023/04/20 02:32:36;;;;;;;13.90;4.30;;;;;;;12.07;49.93;100197.58;108432;1254;65949;-46
2023/04/20 02:35:04;;;;;;;16.90;4.20;;;;;;;12.07;49.61;100193.55;108497;1257;62742;-46
2023/04/20 02:37:32;;;;;;;18.00;4.50;;;;;;;12.07;49.51;100189.69;108421;1254;65125;-46
2023/04/20 02:40:01;;;;;;;18.90;4.30;;;;;;;12.06;49.60;100186.78;108470;1254;60215;-46
2023/04/20 02:42:29;;;;;;;15.90;3.80;;;;;;;12.05;49.48;100189.33;108359;1257;59614;-46
2023/04/20 02:44:58;;;;;;;17.80;4.30;;;;;;;12.04;49.53;100191.16;105294;1254;66091;-50
2023/04/20 02:47:26;;;;;;;15.60;4.10;;;;;;;12.03;49.54;100189.65;108444;1258;62417;-46
2023/04/20 02:49:55;;;;;;;15.90;4.20;;;;;;;12.03;49.42;100187.09;108462;1254;65580;-46
2023/04/20 02:52:23;;;;;;;21.50;4.40;;;;;;;12.01;49.52;100181.67;108446;1257;58863;-46
2023/04/20 02:54:52;;;;;;;19.10;5.20;;;;;;;11.96;49.47;100180.63;108323;1254;58418;-46
2023/04/20 02:57:20;;;;;;;14.50;4.10;;;;;;;11.93;49.50;100184.51;106751;1259;65727;-46
2023/04/20 02:59:48;;;;;;;18.40;4.90;;;;;;;11.90;49.40;100178.52;108499;1257;66124;-46
2023/04/20 03:02:27;;;;;;;20.50;4.80;;;;;;;11.89;49.49;100182.66;108445;1260;65080;-46
2023/04/20 03:04:55;;;;;;;19.60;5.60;;;;;;;11.88;49.46;100185.17;108496;1254;59041;-46
2023/04/20 03:07:25;;;;;;;19.70;4.70;;;;;;;11.89;49.47;100184.61;108385;1254;58435;-46
2023/04/20 03:09:53;;;;;;;17.40;4.80;;;;;;;11.89;49.62;100185.96;108335;1256;64940;-46
2023/04/20 03:12:21;;;;;;;15.00;4.20;;;;;;;11.91;49.32;100188.48;108422;1254;62624;-46
2023/04/20 03:14:58;;;;;;;15.70;4.50;;;;;;;11.92;49.41;100188.08;108435;1259;66815;-46
2023/04/20 03:17:38;;;;;;;13.80;4.00;;;;;;;11.93;49.51;100188.50;108318;1255;59080;-46
2023/04/20 03:20:08;;;;;;;21.20;5.10;;;;;;;11.93;49.40;100183.89;108443;1254;59707;-47
2023/04/20 03:22:36;;;;;;;16.70;4.40;;;;;;;11.95;49.40;100184.09;108404;1255;67861;-46
2023/04/20 03:25:06;;;;;;;19.80;4.90;;;;;;;11.96;49.56;100185.59;105834;1259;62637;-46
2023/04/20 03:28:04;;;;;;;17.10;4.40;;;;;;;11.97;48.87;100188.30;104420;1270;64084;-46
2023/04/20 03:30:32;;;;;;;18.80;5.10;;;;;;;11.97;48.00;100182.33;104923;1254;60589;-48
2023/04/20 03:33:07;;;;;;;11.70;4.80;;;;;;;12.05;47.37;100183.36;108325;1255;60456;-45
2023/04/20 03:35:38;;;;;;;13.50;4.00;;;;;;;12.00;47.47;100181.94;108450;1259;66886;-46
2023/04/20 03:38:06;;;;;;;17.00;4.00;;;;;;;11.99;47.25;100181.42;108515;1259;61774;-46
2023/04/20 03:40:35;;;;;;;15.00;4.70;;;;;;;12.02;47.07;100181.05;108416;1257;64010;-47
2023/04/20 03:43:04;;;;;;;13.30;5.00;;;;;;;12.09;47.12;100180.58;108333;1254;58449;-46
2023/04/20 03:45:32;;;;;;;12.80;4.60;;;;;;;12.15;47.10;100180.39;108423;1254;58817;-46
2023/04/20 03:48:01;;;;;;;13.20;4.40;;;;;;;12.18;47.07;100180.09;107325;1259;68068;-45
2023/04/20 03:50:29;;;;;;;18.30;4.50;;;;;;;12.20;47.26;100181.52;105008;1260;61751;-46
2023/04/20 03:52:58;;;;;;;13.60;4.10;;;;;;;12.19;47.56;100182.15;104879;1260;65013;-46
2023/04/20 03:55:26;;;;;;;16.10;4.80;;;;;;;12.18;47.83;100182.08;104962;1260;60565;-46
2023/04/20 03:57:59;;;;;;;14.20;4.60;;;;;;;12.14;48.45;100181.23;104989;1261;61217;-46
2023/04/20 04:00:29;;;;;;;18.40;4.80;;;;;;;12.07;49.15;100186.36;108330;1260;65829;-46
2023/04/20 04:03:00;;;;;;;12.30;4.30;;;;;;;12.01;49.83;100183.41;106489;1260;62688;-46
2023/04/20 04:05:29;;;;;;;21.20;5.10;;;;;;;11.96;50.36;100185.77;108444;1257;64763;-46
2023/04/20 04:07:57;;;;;;;17.60;4.60;;;;;;;11.92;51.05;100183.48;108433;1260;60695;-46
2023/04/20 04:10:25;;;;;;;20.40;5.00;;;;;;;11.87;51.27;100184.55;108357;1258;60330;-46
2023/04/20 04:12:54;;;;;;;16.20;4.60;;;;;;;11.84;51.58;100185.77;108316;1254;66440;-47
2023/04/20 04:15:22;;;;;;;11.60;4.50;;;;;;;11.81;51.78;100186.23;108411;1257;62691;-46
2023/04/20 04:17:59;;;;;;;17.30;4.80;;;;;;;11.80;52.00;100182.08;105204;1254;65066;-46
2023/04/20 04:20:28;;;;;;;15.70;5.40;;;;;;;11.78;52.06;100181.20;108463;1254;58875;-47
2023/04/20 04:22:57;;;;;;;25.80;5.60;;;;;;;11.73;52.50;100182.63;105865;1259;60635;-46
2023/04/20 04:25:45;;;;;;;18.50;5.10;;;;;;;11.67;52.97;100185.30;105000;1260;66205;-46
2023/04/20 04:28:14;;;;;;;21.80;4.90;;;;;;;11.61;53.48;100185.62;104994;1260;64321;-46
2023/04/20 04:30:48;;;;;;;17.40;4.60;;;;;;;11.56;54.10;100183.77;104905;1263;66448;-46
2023/04/20 04:33:17;;;;;;;16.40;5.10;;;;;;;11.50;54.50;100183.59;105026;1259;60754;-46
2023/04/20 04:35:47;;;;;;;16.70;5.10;;;;;;;11.48;54.55;100178.67;105008;1260;60858;-46
2023/04/20 04:38:16;;;;;;;17.70;5.10;;;;;;;11.51;54.72;100178.10;104936;1259;66207;-45
2023/04/20 04:40:46;;;;;;;16.50;5.30;;;;;;;11.54;54.84;100176.76;108393;1254;62497;-46
2023/04/20 04:43:14;;;;;;;19.80;5.10;;;;;;;11.57;54.86;100175.98;107727;1259;64611;-45
2023/04/20 04:45:52;;;;;;;13.80;5.00;;;;;;;11.54;55.06;100175.15;108412;1259;58211;-47
2023/04/20 04:48:20;;;;;;;14.30;4.40;;;;;;;11.51;55.54;100176.10;108342;1254;59089;-46
2023/04/20 04:50:48;;;;;;;20.10;5.00;;;;;;;11.52;55.74;100176.05;108443;1258;66456;-46
2023/04/20 04:53:16;;;;;;;15.90;4.50;;;;;;;11.48;56.00;100172.16;108511;1254;63583;-46
2023/04/20 04:55:45;;;;;;;12.80;4.30;;;;;;;11.47;56.13;100173.51;108458;1254;65034;-46
2023/04/20 04:58:14;;;;;;;14.00;5.00;;;;;;;11.48;56.52;100166.61;108424;1254;59175;-46
2023/04/20 05:00:42;;;;;;;21.10;4.40;;;;;;;11.52;56.63;100167.13;108499;1254;58962;-46
2023/04/20 05:03:10;;;;;;;14.90;4.30;;;;;;;11.56;56.98;100168.74;108427;1260;66499;-47
2023/04/20 05:05:39;;;;;;;21.70;4.40;;;;;;;11.58;57.29;100170.13;108450;1258;62673;-46
2023/04/20 05:08:07;;;;;;;16.80;4.60;;;;;;;11.55;57.32;100166.50;106477;1263;63718;-46
2023/04/20 05:10:35;;;;;;;15.20;4.80;;;;;;;11.48;57.66;100159.20;105019;1254;60716;-45
2023/04/20 05:13:03;;;;;;;16.50;3.90;;;;;;;11.43;58.30;100156.67;105030;1260;60451;-45
2023/04/20 05:15:31;;;;;;;18.90;4.50;;;;;;;11.47;58.46;100159.48;104952;1254;66176;-45
2023/04/20 05:18:01;;;;;;;14.30;4.20;;;;;;;11.39;58.99;100166.34;108455;1254;63418;-48
2023/04/20 05:20:29;;;;;;;15.40;5.00;;;;;;;11.32;59.33;100166.18;108470;1258;64069;-49
2023/04/20 05:22:57;;;;;;;18.60;4.70;;;;;;;11.28;59.64;100169.12;108407;1254;59145;-46
2023/04/20 05:25:25;;;;;;;23.00;4.60;;;;;;;11.25;59.89;100168.39;105941;1255;60427;-45
2023/04/20 05:27:53;;;;;;;16.70;4.60;;;;;;;11.21;60.18;100171.50;105053;1264;66238;-45
2023/04/20 05:30:22;;;;;;;20.20;4.80;;;;;;;11.24;60.29;100172.17;105015;1260;64880;-45
2023/04/20 05:32:50;;;;;;;14.70;4.30;;;;;;;11.25;60.49;100174.52;105089;1258;64698;-45
2023/04/20 05:35:20;;;;;;;14.50;4.90;;;;;;;11.24;60.94;100174.31;108183;1260;60778;-46
2023/04/20 05:37:48;;;;;;;16.00;4.40;;;;;;;11.20;61.61;100174.46;108418;1254;60152;-46
2023/04/20 05:40:16;;;;;;;14.30;4.50;;;;;;;11.11;62.13;100174.48;108452;1254;65981;-46
2023/04/20 05:42:44;;;;;;;22.00;5.20;;;;;;;11.10;62.45;100174.94;108366;1254;63696;-46
2023/04/20 05:45:12;;;;;;;13.90;5.00;;;;;;;11.13;62.82;100175.23;108356;1254;66643;-46
2023/04/20 05:47:41;;;;;;;17.10;5.50;;;;;;;11.08;63.26;100174.23;108454;1254;59444;-47
2023/04/20 05:50:09;;;;;;;18.80;4.80;;;;;;;11.01;63.99;100173.10;108382;1254;60674;-47
2023/04/20 05:52:37;;;;;;;22.30;4.70;;;;;;;10.98;64.57;100183.34;108435;1254;66279;-46
2023/04/20 05:55:06;;;;;;;17.00;4.20;;;;;;;10.97;65.18;100180.20;108447;1254;62357;-47
2023/04/20 05:57:41;;;;;;;18.20;4.70;;;;;;;10.97;65.44;100183.73;108489;1254;64024;-46
2023/04/20 06:00:13;;;;;;;16.90;5.10;;;;;;;10.97;65.78;100180.59;108441;1254;58413;-46
2023/04/20 06:02:41;;;;;;;17.00;4.70;;;;;;;10.97;65.93;100179.34;108436;1255;59079;-46
2023/04/20 06:05:10;;;;;;;24.80;4.50;;;;;;;11.01;65.97;100179.00;108411;1254;65053;-46
2023/04/20 06:07:39;;;;;;;16.40;4.50;;;;;;;11.06;66.05;100177.34;108406;1261;61597;-46
2023/04/20 06:10:07;;;;;;;17.00;5.00;;;;;;;11.04;66.03;100174.77;108424;1257;66374;-46
2023/04/20 06:12:36;;;;;;;14.10;5.40;;;;;;;11.01;66.17;100175.33;108414;1254;58428;-46
2023/04/20 06:15:09;;;;;;;15.90;4.70;;;;;;;10.97;66.80;100176.19;108430;1254;59245;-46
2023/04/20 06:17:39;;;;;;;16.80;4.50;;;;;;;11.05;66.72;100171.89;108526;1256;67069;-46
2023/04/20 06:20:09;;;;;;;19.30;4.60;;;;;;;11.16;66.24;100167.63;108570;1254;63581;-46
2023/04/20 06:22:44;;;;;;;18.70;4.90;;;;;;;11.15;66.50;100168.73;108434;1254;64933;-46
2023/04/20 06:25:12;;;;;;;16.70;4.80;;;;;;;11.17;66.61;100167.99;108362;1254;59176;-46
2023/04/20 06:27:41;;;;;;;20.80;4.50;;;;;;;11.26;66.22;100163.02;108429;1254;58750;-46
2023/04/20 06:30:10;;;;;;;20.50;5.20;;;;;;;11.35;65.97;100164.55;108428;1260;66139;-47
2023/04/20 06:32:38;;;;;;;23.60;6.00;;;;;;;11.35;65.70;100163.65;108494;1254;62479;-46
2023/04/20 06:35:07;;;;;;;18.60;5.00;;;;;;;11.29;66.16;100155.87;108651;1254;64722;-46
2023/04/20 06:37:35;;;;;;;19.70;5.10;;;;;;;11.32;66.15;100154.25;106474;1254;60910;-45
2023/04/20 06:40:06;;;;;;;18.80;5.10;;;;;;;11.38;65.85;100147.11;105026;1258;61261;-46
2023/04/20 06:42:36;;;;;;;16.20;5.20;;;;;;;11.39;65.66;100137.29;108456;1254;64879;-46
2023/04/20 06:45:05;;;;;;;16.50;5.20;;;;;;;11.42;65.47;100137.97;108420;1254;61641;-46
2023/04/20 06:47:33;;;;;;;19.60;5.10;;;;;;;11.47;65.57;100139.46;106623;1259;65024;-46
2023/04/20 06:50:03;;;;;;;16.80;4.70;;;;;;;11.55;65.10;100143.16;108465;1254;60251;-46
2023/04/20 06:52:32;;;;;;;16.90;4.60;;;;;;;11.62;64.79;100138.66;108378;1254;59307;-46
2023/04/20 06:55:00;;;;;;;22.70;4.90;;;;;;;11.68;64.56;100141.98;108461;1257;66387;-46
2023/04/20 06:57:28;;;;;;;18.00;5.30;;;;;;;11.73;64.51;100137.70;108473;1254;63149;-46
2023/04/20 06:59:57;;;;;;;24.40;5.10;;;;;;;11.78;64.65;100138.98;108432;1256;65367;-46
2023/04/20 07:02:26;;;;;;;16.50;4.70;;;;;;;11.90;64.37;100139.06;108414;1258;60224;-46
2023/04/20 07:05:00;;;;;;;21.60;6.10;;;;;;;12.01;63.68;100132.92;106052;1256;60839;-45
2023/04/20 07:07:28;;;;;;;21.20;5.40;;;;;;;12.08;63.45;100136.66;108508;1255;66077;-45
2023/04/20 07:09:57;;;;;;;16.00;5.30;;;;;;;12.11;63.43;100135.52;108416;1254;62953;-46
2023/04/20 07:12:26;;;;;;;15.40;4.70;;;;;;;12.15;62.52;100131.19;108486;1254;66589;-46
2023/04/20 07:14:54;;;;;;;18.90;4.90;;;;;;;12.16;62.41;100138.64;105109;1260;60583;-46
2023/04/20 07:17:26;;;;;;;18.70;5.60;;;;;;;12.19;62.43;100132.73;108388;1257;58954;-47
2023/04/20 07:19:55;;;;;;;16.30;5.00;;;;;;;12.26;62.35;100132.80;108404;1254;65671;-46
2023/04/20 07:22:24;;;;;;;15.60;4.60;;;;;;;12.30;62.37;100131.77;108456;1254;61457;-46
2023/04/20 07:24:52;;;;;;;23.50;6.00;;;;;;;12.31;61.74;100131.23;108506;1254;65362;-46
2023/04/20 07:27:20;;;;;;;19.00;4.80;;;;;;;12.30;61.18;100129.33;108415;1254;59512;-46
2023/04/20 07:29:48;;;;;;;15.80;4.00;;;;;;;12.25;61.02;100125.28;108425;1254;59868;-46
2023/04/20 07:32:16;;;;;;;15.90;3.70;;;;;;;12.29;61.10;100124.11;108389;1254;65185;-46
2023/04/20 07:34:44;;;;;;;16.00;4.60;;;;;;;12.32;60.42;100118.16;108512;1254;62362;-46
2023/04/20 07:37:12;;;;;;;12.10;4.00;;;;;;;12.40;60.07;100123.79;105644;1255;64433;-45
2023/04/20 07:39:40;;;;;;;17.90;4.80;;;;;;;12.40;59.68;100119.92;108400;1258;60170;-46
2023/04/20 07:42:09;;;;;;;18.20;4.80;;;;;;;12.32;59.74;100120.65;105856;1260;60472;-45
2023/04/20 07:44:37;;;;;;;16.00;4.70;;;;;;;12.30;59.76;100120.83;108427;1254;66198;-46
2023/04/20 07:47:05;;;;;;;17.70;4.10;;;;;;;12.28;59.49;100119.21;105762;1258;62582;-45
2023/04/20 07:49:37;;;;;;;20.20;4.60;;;;;;;12.36;59.01;100120.23;104925;1258;65122;-46
2023/04/20 07:52:06;;;;;;;18.90;4.80;;;;;;;12.40;59.15;100118.81;105043;1258;60546;-46
2023/04/20 07:54:44;;;;;;;21.60;5.20;;;;;;;12.39;58.88;100113.27;107003;1257;60906;-46
2023/04/20 07:57:12;;;;;;;19.90;4.90;;;;;;;12.36;58.83;100115.16;108401;1255;66202;-46
2023/04/20 07:59:41;;;;;;;21.00;5.20;;;;;;;12.33;59.09;100116.64;105101;1254;62986;-46
2023/04/20 08:02:09;;;;;;;20.30;5.10;;;;;;;12.44;58.56;100118.45;104942;1259;65040;-46
2023/04/20 08:04:38;;;;;;;22.90;4.50;;;;;;;12.46;58.44;100120.39;108449;1254;58283;-46
2023/04/20 08:07:07;;;;;;;13.50;4.80;;;;;;;12.33;58.67;100126.36;108571;1254;58954;-46
2023/04/20 08:09:35;;;;;;;23.10;5.30;;;;;;;12.32;58.87;100126.47;105117;1254;66132;-46
2023/04/20 08:12:04;;;;;;;20.70;4.80;;;;;;;12.32;59.24;100126.10;108455;1254;63695;-46
2023/04/20 08:14:33;;;;;;;18.10;5.10;;;;;;;12.35;58.77;100124.63;108478;1254;65984;-46
2023/04/20 08:17:01;;;;;;;14.30;4.20;;;;;;;12.28;58.73;100122.59;108427;1255;59670;-47
2023/04/20 08:19:29;;;;;;;18.30;5.60;;;;;;;12.26;59.05;100120.16;108527;1254;60296;-46
2023/04/20 08:21:57;;;;;;;22.70;4.50;;;;;;;12.25;58.83;100127.94;108470;1254;67230;-46
2023/04/20 08:24:26;;;;;;;19.60;4.80;;;;;;;12.27;58.82;100125.11;108461;1254;63785;-47
2023/04/20 08:26:55;;;;;;;18.00;4.90;;;;;;;12.31;58.60;100128.52;108520;1254;74712;-46
2023/04/20 08:29:24;;;;;;;16.10;4.10;;;;;;;12.31;58.50;100124.58;108450;1254;60522;-46
2023/04/20 08:31:52;;;;;;;25.10;5.20;;;;;;;12.27;58.35;100123.90;108435;1258;61375;-46
2023/04/20 08:34:21;;;;;;;20.50;5.10;;;;;;;12.23;58.54;100126.89;108602;1255;65999;-46
2023/04/20 08:36:49;;;;;;;12.50;4.70;;;;;;;12.22;58.71;100128.23;108506;1254;61406;-46
2023/04/20 08:39:19;;;;;;;16.10;4.50;;;;;;;12.21;59.02;100126.05;108417;1254;65059;-46
2023/04/20 08:41:52;;;;;;;28.20;5.50;;;;;;;12.23;59.38;100126.00;108438;1254;59851;-46
2023/04/20 08:44:21;;;;;;;14.40;4.90;;;;;;;12.29;59.32;100129.39;108441;1256;58836;-46
2023/04/20 08:46:49;;;;;;;19.10;5.20;;;;;;;12.30;59.32;100123.33;108482;1256;66161;-46
2023/04/20 08:49:18;;;;;;;22.30;4.90;;;;;;;12.31;59.54;100128.11;108487;1254;62613;-46
2023/04/20 08:51:46;;;;;;;16.00;5.10;;;;;;;12.30;59.79;100127.29;108379;1255;64733;-46
2023/04/20 08:54:15;;;;;;;15.90;4.80;;;;;;;12.18;60.31;100128.39;108406;1254;60482;-46
2023/04/20 08:56:44;;;;;;;29.90;5.20;;;;;;;12.07;60.68;100124.31;105533;1259;60364;-45
2023/04/20 08:59:13;;;;;;;16.80;5.20;;;;;;;12.06;61.08;100124.59;108491;1254;64760;-45
2023/04/20 09:01:42;;;;;;;18.80;4.70;;;;;;;12.09;61.32;100128.17;108493;1254;61492;-45
2023/04/20 09:04:26;;;;;;;19.90;4.90;;;;;;;12.09;61.44;100125.04;108477;1254;63976;-46
2023/04/20 09:06:55;;;;;;;14.00;5.00;;;;;;;12.08;61.22;100121.75;108521;1259;60047;-46
2023/04/20 09:09:24;;;;;;;10.80;3.60;;;;;;;12.06;61.30;100119.78;108443;1254;58313;-46
2023/04/20 09:12:02;;;;;;;25.60;4.90;;;;;;;12.07;61.14;100119.84;108452;1256;65835;-46
2023/04/20 09:14:41;;;;;;;15.00;4.50;;;;;;;12.14;60.99;100123.00;108448;1254;63090;-48
2023/04/20 09:17:13;;;;;;;15.80;5.10;;;;;;;12.17;61.08;100125.48;108458;1254;65310;-46
2023/04/20 09:19:44;;;;;;;14.50;4.20;;;;;;;12.18;60.86;100123.45;108437;1254;60491;-47
2023/04/20 09:22:12;;;;;;;13.00;4.40;;;;;;;12.19;60.56;100123.98;108561;1254;58918;-46
2023/04/20 09:24:41;;;;;;;14.50;3.90;;;;;;;12.17;60.53;100117.61;108454;1254;68327;-47
2023/04/20 09:27:16;;;;;;;13.10;3.70;;;;;;;12.19;60.50;100115.11;108433;1254;65156;-47
2023/04/20 09:29:56;;;;;;;19.50;4.40;;;;;;;12.23;60.65;100115.67;108255;1254;224123;-47
2023/04/20 09:44:59;;;;;;;13.20;4.00;;;;;;;12.35;60.17;100116.25;102722;1283;604358;-46
2023/04/20 09:47:28;;;;;;;13.20;4.00;;;;;;;12.74;58.88;100115.13;107461;1264;104412;-46
2023/04/20 09:49:56;;;;;;;14.10;3.80;;;;;;;12.72;58.97;100116.95;107803;1267;59423;-46
2023/04/20 09:52:29;;;;;;;14.40;4.10;;;;;;;12.74;59.07;100112.48;108234;1259;63766;-47
2023/04/20 09:54:57;;;;;;;15.10;4.50;;;;;;;12.78;58.83;100116.56;108323;1262;61472;-47
2023/04/20 09:57:26;;;;;;;15.20;4.20;;;;;;;12.78;58.66;100123.58;108496;1257;64236;-47
2023/04/20 09:59:54;;;;;;;21.10;3.40;;;;;;;12.75;58.25;100118.21;108309;1257;59234;-47
2023/04/20 10:02:22;;;;;;;17.00;4.10;;;;;;;12.72;58.42;100124.17;108439;1256;58976;-47
2023/04/20 10:04:54;;;;;;;15.20;4.10;;;;;;;12.69;58.91;100126.70;108458;1257;65193;-47
2023/04/20 10:07:26;;;;;;;17.90;3.50;;;;;;;12.68;59.09;100133.19;108423;1257;62594;-47
2023/04/20 10:10:05;;;;;;;12.90;3.60;;;;;;;12.69;59.22;100136.56;105298;1256;65206;-46
2023/04/20 10:12:35;;;;;;;15.50;4.40;;;;;;;12.72;59.27;100137.42;108308;1256;59348;-46
2023/04/20 10:15:04;;;;;;;16.30;4.20;;;;;;;12.70;59.56;100139.54;108252;1256;59512;-46
2023/04/20 10:17:33;;;;;;;18.00;4.80;;;;;;;12.69;59.68;100137.48;107946;1256;65375;-46
2023/04/20 10:20:03;;;;;;;19.30;4.50;;;;;;;12.64;59.58;100135.85;105009;1257;62488;-46
2023/04/20 10:22:32;;;;;;;12.90;3.50;;;;;;;12.57;59.98;100137.65;104875;1263;66021;-46
2023/04/20 10:25:01;;;;;;;16.70;4.30;;;;;;;12.57;60.14;100139.65;104898;1257;60529;-45
2023/04/20 10:27:31;;;;;;;11.60;3.50;;;;;;;12.58;60.33;100140.92;108401;1260;59659;-49
2023/04/20 10:30:09;;;;;;;13.30;4.00;;;;;;;12.57;60.47;100139.45;108298;1256;64110;-45
2023/04/20 10:32:37;;;;;;;17.90;4.70;;;;;;;12.56;60.35;100134.30;105610;1261;62166;-45
2023/04/20 10:35:09;;;;;;;17.50;3.90;;;;;;;12.51;59.98;100135.11;105119;1258;65290;-50
2023/04/20 10:37:50;;;;;;;15.90;3.90;;;;;;;12.45;59.91;100138.55;104780;1258;59928;-45
2023/04/20 10:40:25;;;;;;;15.90;4.10;;;;;;;12.42;59.87;100137.59;108318;1256;58062;-46
2023/04/20 10:42:54;;;;;;;13.60;3.80;;;;;;;12.46;59.82;100136.41;108257;1256;67453;-46
2023/04/20 10:45:35;;;;;;;20.60;4.80;;;;;;;12.48;59.94;100138.88;106676;1260;61626;-46
2023/04/20 10:48:08;;;;;;;14.60;4.00;;;;;;;12.48;59.84;100136.98;108310;1256;65428;-46
2023/04/20 10:50:36;;;;;;;19.00;4.30;;;;;;;12.47;59.81;100135.11;108292;1257;58289;-47
2023/04/20 10:53:04;;;;;;;17.90;4.30;;;;;;;12.48;59.97;100141.19;108322;1256;57758;-46
2023/04/20 10:55:33;;;;;;;13.50;3.70;;;;;;;12.49;60.07;100140.23;108283;1256;65428;-47
2023/04/20 10:58:01;;;;;;;15.60;4.10;;;;;;;12.53;60.26;100140.22;108307;1256;62534;-46
2023/04/20 11:00:29;;;;;;;15.90;3.90;;;;;;;12.60;60.33;100147.67;106471;1259;67766;-46
2023/04/20 11:02:58;;;;;;;10.80;4.10;;;;;;;12.63;60.51;100146.30;104836;1257;59980;-46
2023/04/20 11:05:26;;;;;;;16.90;3.80;;;;;;;12.61;60.74;100151.71;108243;1256;59151;-46
2023/04/20 11:07:58;;;;;;;19.50;4.20;;;;;;;12.59;61.16;100154.77;105786;1260;64107;-47
2023/04/20 11:10:37;;;;;;;18.70;4.10;;;;;;;12.57;61.84;100158.82;108215;1256;63337;-46
2023/04/20 11:13:06;;;;;;;14.80;3.80;;;;;;;12.57;62.01;100153.19;108271;1257;65006;-46
2023/04/20 11:15:35;;;;;;;18.70;4.00;;;;;;;12.53;62.26;100162.50;108310;1256;58039;-46
2023/04/20 11:18:06;;;;;;;13.90;4.10;;;;;;;12.46;62.87;100167.00;108291;1257;59506;-46
2023/04/20 11:20:35;;;;;;;11.00;3.70;;;;;;;12.39;63.38;100174.65;108302;1256;65794;-46
2023/04/20 11:23:04;;;;;;;16.00;4.10;;;;;;;12.37;63.87;100174.40;108228;1257;62522;-46
2023/04/20 11:25:33;;;;;;;12.80;4.20;;;;;;;12.37;63.86;100173.48;107815;1256;67058;-46
2023/04/20 11:28:08;;;;;;;15.80;4.00;;;;;;;12.36;63.99;100172.81;108078;1257;59467;-46
2023/04/20 11:30:40;;;;;;;14.30;3.70;;;;;;;12.34;64.22;100172.86;108309;1256;59957;-46
2023/04/20 11:33:08;;;;;;;18.50;4.60;;;;;;;12.31;64.15;100170.21;108251;1256;67105;-46